Monett, Missouri
Current Conditions -  °F | °C
As of 2:55 PM on Tuesday 21 Oct 2014 (Local Time) from KHFJ Reporting Station
Clear Clear  
Wind Chill: 73°   Ceiling: Unl
Heat Index: 73°   Visibility: 10mi
Dew Point: 48°   Wind: 3mph
Humidity: 41%   Direction: 360°N
Pressure: 30.08"   Gusts: NA
Location:  36.92°N, 93.93°W
Report Text: KHFJ 211955Z AUTO 36003KT 10SM CLR 23/09 A3008 RMK AO2
Loading
Personal Weather Stations






























Interactive Weather Map
Tropical Storm Tracking
New forecast layout! Learn more

10-Day Weather Forecast

Advertisements
Track Severe Weather on mobile